Time;durP1;ratioP1;P1;durP2;ratioP2;P2;SDS_P1;SDS_P2;PMS_P1;PMS_P2;Temp;Humidity;BMP_temperature;BMP_pressure;BME280_temperature;BME280_humidity;BME280_pressure;Samples;Min_cycle;Max_cycle;Signal;HPM_P1;HPM_P2
2023/03/19 00:02:02;;;;;;;6.00;4.47;;;10.50;99.90;;;;;;5034367;28;20120;-65
2023/03/19 00:04:28;;;;;;;8.57;4.50;;;10.50;99.90;;;;;;5033795;28;20140;-64
2023/03/19 00:06:54;;;;;;;5.22;4.20;;;10.50;99.90;;;;;;5034218;28;20053;-65
2023/03/19 00:09:21;;;;;;;6.22;3.65;;;10.50;99.90;;;;;;5034476;28;20041;-64
2023/03/19 00:11:47;;;;;;;3.88;3.20;;;10.50;99.90;;;;;;5033849;28;20140;-64
2023/03/19 00:14:14;;;;;;;5.97;4.43;;;10.50;99.90;;;;;;5034403;28;20046;-64
2023/03/19 00:16:39;;;;;;;6.50;3.40;;;10.50;99.90;;;;;;5034251;28;20041;-64
2023/03/19 00:19:06;;;;;;;4.38;3.35;;;10.50;99.90;;;;;;5066867;28;20044;-64
2023/03/19 00:21:32;;;;;;;6.75;4.00;;;10.50;99.90;;;;;;5034397;28;20053;-64
2023/03/19 00:24:01;;;;;;;4.72;3.38;;;10.50;99.90;;;;;;5035575;28;20150;-64
2023/03/19 00:26:30;;;;;;;4.70;3.28;;;10.50;99.90;;;;;;5066818;28;20061;-64
2023/03/19 00:28:56;;;;;;;8.57;3.27;;;10.50;99.90;;;;;;5017714;28;20038;-64
2023/03/19 00:31:23;;;;;;;5.38;3.13;;;10.50;99.90;;;;;;5034449;28;20359;-64
2023/03/19 00:33:49;;;;;;;5.10;3.00;;;10.50;99.90;;;;;;5034815;28;20037;-64
2023/03/19 00:36:16;;;;;;;5.05;3.45;;;10.50;99.90;;;;;;5067419;28;20048;-64
2023/03/19 00:38:42;;;;;;;3.47;2.45;;;10.50;99.90;;;;;;5035612;28;20464;-64
2023/03/19 00:41:08;;;;;;;3.58;2.50;;;10.50;99.90;;;;;;5034197;28;20116;-64
2023/03/19 00:43:34;;;;;;;3.88;2.22;;;10.50;99.90;;;;;;5033941;28;20041;-64
2023/03/19 00:46:01;;;;;;;4.10;3.08;;;10.50;99.90;;;;;;5033392;28;20442;-64
2023/03/19 00:48:27;;;;;;;5.32;2.72;;;10.50;99.90;;;;;;5067244;28;20041;-64
2023/03/19 00:50:52;;;;;;;4.47;2.67;;;10.50;99.90;;;;;;5033944;28;20577;-64
2023/03/19 00:53:18;;;;;;;4.95;2.55;;;10.50;99.90;;;;;;5033513;28;20132;-64
2023/03/19 00:55:45;;;;;;;4.93;2.70;;;10.40;99.90;;;;;;5035370;28;20048;-65
2023/03/19 00:58:11;;;;;;;5.82;2.38;;;10.50;99.90;;;;;;5035121;28;20037;-64
2023/03/19 01:00:37;;;;;;;4.50;2.47;;;10.50;99.90;;;;;;5035124;28;20046;-64
2023/03/19 01:03:05;;;;;;;3.03;1.90;;;10.50;99.90;;;;;;5032463;28;20049;-64
2023/03/19 01:05:33;;;;;;;5.07;2.40;;;10.50;99.90;;;;;;5030918;28;20121;-64
2023/03/19 01:07:59;;;;;;;3.15;2.28;;;10.50;99.90;;;;;;5030120;28;20045;-64
2023/03/19 01:10:25;;;;;;;3.55;2.05;;;10.50;99.90;;;;;;5031948;28;20041;-64
2023/03/19 01:12:51;;;;;;;5.43;2.45;;;10.50;99.90;;;;;;5030473;28;20120;-65
2023/03/19 01:15:17;;;;;;;5.07;2.25;;;10.50;99.90;;;;;;5031667;28;20140;-64
2023/03/19 01:17:43;;;;;;;3.60;2.17;;;10.50;99.90;;;;;;5031902;28;20560;-64
2023/03/19 01:20:17;;;;;;;2.70;2.20;;;10.50;99.90;;;;;;5031656;28;20033;-64
2023/03/19 01:22:44;;;;;;;3.30;2.20;;;10.50;99.90;;;;;;5030013;28;20106;-64
2023/03/19 01:25:12;;;;;;;2.97;2.53;;;10.50;99.90;;;;;;5030116;28;20034;-64
2023/03/19 01:27:39;;;;;;;4.03;2.47;;;10.50;99.90;;;;;;5030238;28;20502;-64
2023/03/19 01:30:06;;;;;;;5.00;2.45;;;10.50;99.90;;;;;;5029649;28;20498;-64
2023/03/19 01:32:32;;;;;;;5.18;2.20;;;10.50;99.90;;;;;;5030238;28;20037;-64
2023/03/19 01:34:58;;;;;;;3.70;2.15;;;10.50;99.90;;;;;;5029769;28;20046;-64
2023/03/19 01:37:24;;;;;;;3.05;2.28;;;10.50;99.90;;;;;;5030312;28;20048;-65
2023/03/19 01:39:50;;;;;;;4.20;2.30;;;10.50;99.90;;;;;;5031435;28;20441;-64
2023/03/19 01:42:16;;;;;;;3.35;2.33;;;10.50;99.90;;;;;;5030519;28;20108;-64
2023/03/19 01:44:43;;;;;;;4.00;2.58;;;10.50;99.90;;;;;;5030207;28;20041;-64
2023/03/19 01:47:37;;;;;;;4.90;2.30;;;10.50;99.90;;;;;;5031479;28;20413;-64
2023/03/19 01:50:05;;;;;;;3.78;2.40;;;10.50;99.90;;;;;;5030941;28;20041;-64
2023/03/19 01:52:34;;;;;;;4.07;2.08;;;10.50;99.90;;;;;;5030095;28;20045;-64
2023/03/19 01:55:03;;;;;;;5.07;2.58;;;10.60;99.90;;;;;;5029998;28;20099;-64
2023/03/19 01:57:30;;;;;;;3.95;2.55;;;10.50;99.90;;;;;;5062766;28;20053;-65
2023/03/19 01:59:59;;;;;;;3.92;2.08;;;10.60;99.90;;;;;;5046344;28;20042;-65
2023/03/19 02:02:27;;;;;;;3.33;2.40;;;10.50;99.90;;;;;;5013091;28;20045;-64
2023/03/19 02:05:03;;;;;;;3.47;2.47;;;10.60;99.90;;;;;;5029009;28;20080;-64
2023/03/19 02:07:32;;;;;;;3.47;1.85;;;10.60;99.90;;;;;;5029661;28;20470;-64
2023/03/19 02:09:59;;;;;;;5.43;2.30;;;10.60;99.90;;;;;;5028860;28;20505;-64
2023/03/19 02:12:25;;;;;;;3.72;1.77;;;10.60;99.90;;;;;;5030706;28;20052;-65
2023/03/19 02:14:51;;;;;;;4.97;1.90;;;10.60;99.90;;;;;;5012376;28;20046;-65
2023/03/19 02:17:17;;;;;;;3.60;2.25;;;10.60;99.90;;;;;;5028786;28;20091;-65
2023/03/19 02:19:52;;;;;;;2.80;1.80;;;10.60;99.90;;;;;;5030654;28;20045;-65
2023/03/19 02:22:21;;;;;;;4.88;2.20;;;10.60;99.90;;;;;;5029585;28;20122;-64
2023/03/19 02:25:10;;;;;;;4.20;2.33;;;10.60;99.90;;;;;;5028946;28;20084;-64
2023/03/19 02:27:36;;;;;;;2.60;1.80;;;10.60;99.90;;;;;;5062780;28;20049;-64
2023/03/19 02:30:26;;;;;;;2.50;1.92;;;10.60;99.90;;;;;;5030469;28;20402;-64
2023/03/19 02:32:52;;;;;;;3.38;2.08;;;10.60;99.90;;;;;;5062135;28;20070;-64
2023/03/19 02:35:18;;;;;;;3.22;1.73;;;10.60;99.90;;;;;;5029264;28;20045;-65
2023/03/19 02:37:43;;;;;;;3.75;2.08;;;10.60;99.90;;;;;;5028339;28;20460;-64
2023/03/19 02:40:16;;;;;;;3.15;2.13;;;10.60;99.90;;;;;;5028885;28;20107;-65
2023/03/19 02:42:42;;;;;;;4.88;2.00;;;10.60;99.90;;;;;;5030579;28;20046;-65
2023/03/19 02:45:08;;;;;;;3.70;2.17;;;10.60;99.90;;;;;;5028105;28;20045;-64
2023/03/19 02:47:34;;;;;;;4.13;2.40;;;10.60;99.90;;;;;;5028760;28;20111;-64
2023/03/19 02:50:00;;;;;;;6.22;2.78;;;10.60;99.90;;;;;;5028765;28;20045;-64
2023/03/19 02:52:26;;;;;;;3.38;2.30;;;10.60;99.90;;;;;;5029701;28;20049;-64
2023/03/19 02:54:51;;;;;;;3.58;2.78;;;10.60;99.90;;;;;;5028652;28;20041;-64
2023/03/19 02:57:17;;;;;;;4.15;3.00;;;10.50;99.90;;;;;;5029866;28;20132;-64
2023/03/19 02:59:43;;;;;;;5.90;3.10;;;10.50;99.90;;;;;;5029110;28;20045;-64
2023/03/19 03:02:09;;;;;;;4.28;3.00;;;10.60;99.90;;;;;;5030032;28;20037;-64
2023/03/19 03:04:36;;;;;;;4.45;3.40;;;10.60;99.90;;;;;;5028430;28;20546;-64
2023/03/19 03:07:03;;;;;;;6.60;3.72;;;10.60;99.90;;;;;;5061096;28;20041;-64
2023/03/19 03:09:29;;;;;;;4.97;3.80;;;10.50;99.90;;;;;;5029752;28;20048;-64
2023/03/19 03:11:56;;;;;;;5.53;4.30;;;10.50;99.90;;;;;;5061697;28;20077;-64
2023/03/19 03:14:21;;;;;;;5.97;4.28;;;10.50;99.90;;;;;;5027636;28;20132;-64
2023/03/19 03:16:47;;;;;;;5.20;4.07;;;10.50;99.90;;;;;;5061802;28;20057;-64
2023/03/19 03:19:13;;;;;;;5.32;4.43;;;10.50;99.90;;;;;;5029478;28;20449;-64
2023/03/19 03:21:40;;;;;;;7.90;4.35;;;10.50;99.90;;;;;;5044384;28;20042;-65
2023/03/19 03:24:06;;;;;;;6.45;5.00;;;10.60;99.90;;;;;;5061566;28;20045;-64
2023/03/19 03:26:33;;;;;;;7.82;5.35;;;10.60;99.90;;;;;;5028487;28;20111;-64
2023/03/19 03:28:59;;;;;;;6.63;4.75;;;10.60;99.90;;;;;;5028831;28;20041;-64
2023/03/19 03:31:25;;;;;;;7.10;4.97;;;10.60;99.90;;;;;;5029599;28;20041;-64
2023/03/19 03:33:51;;;;;;;8.63;5.40;;;10.60;99.90;;;;;;5060670;28;20053;-64
2023/03/19 03:36:17;;;;;;;6.43;5.00;;;10.60;99.90;;;;;;5029266;28;20119;-64
2023/03/19 03:38:44;;;;;;;6.45;5.15;;;10.60;99.90;;;;;;5061541;28;20045;-64
2023/03/19 03:41:10;;;;;;;8.07;4.93;;;10.60;99.90;;;;;;5027412;28;20045;-64
2023/03/19 03:43:36;;;;;;;6.65;5.65;;;10.50;99.90;;;;;;5027953;28;20053;-64
2023/03/19 03:46:02;;;;;;;7.07;5.45;;;10.50;99.90;;;;;;5028111;28;20509;-64
2023/03/19 03:48:27;;;;;;;6.57;5.22;;;10.60;99.90;;;;;;5027653;28;20034;-65
2023/03/19 03:50:53;;;;;;;9.52;6.07;;;10.50;99.90;;;;;;5061373;28;20050;-64
2023/03/19 03:53:19;;;;;;;9.73;6.78;;;10.50;99.90;;;;;;5027881;28;20131;-65
2023/03/19 03:55:45;;;;;;;10.25;7.28;;;10.50;99.90;;;;;;5027227;28;20048;-64
2023/03/19 03:58:11;;;;;;;12.52;8.43;;;10.40;99.90;;;;;;5029149;28;20190;-64
2023/03/19 04:00:38;;;;;;;13.50;9.45;;;10.40;99.90;;;;;;5029278;28;20041;-64
2023/03/19 04:03:04;;;;;;;14.50;9.43;;;10.40;99.90;;;;;;5027256;28;20187;-64
2023/03/19 04:05:29;;;;;;;11.93;9.27;;;10.40;99.90;;;;;;5060954;28;20089;-64
2023/03/19 04:07:55;;;;;;;12.88;9.38;;;10.40;99.90;;;;;;5061333;28;20041;-64
2023/03/19 04:10:22;;;;;;;12.90;9.63;;;10.40;99.90;;;;;;5028365;28;20510;-64
2023/03/19 04:12:48;;;;;;;13.80;9.02;;;10.30;99.90;;;;;;5027686;28;20494;-64
2023/03/19 04:15:15;;;;;;;12.27;8.52;;;10.30;99.90;;;;;;5029029;28;20054;-64
2023/03/19 04:17:41;;;;;;;11.50;8.88;;;10.20;99.90;;;;;;5027345;28;20042;-65
2023/03/19 04:20:08;;;;;;;10.32;7.15;;;10.20;99.90;;;;;;5028073;28;20064;-65
2023/03/19 04:22:34;;;;;;;9.80;6.78;;;10.10;99.90;;;;;;5027503;28;20045;-64
2023/03/19 04:25:00;;;;;;;9.57;7.50;;;10.10;99.90;;;;;;5027997;28;20067;-64
2023/03/19 04:27:26;;;;;;;10.95;7.72;;;10.00;99.90;;;;;;5061325;28;20402;-64
2023/03/19 04:29:52;;;;;;;10.57;8.10;;;10.00;99.90;;;;;;5043624;28;20042;-64
2023/03/19 04:32:18;;;;;;;9.75;7.32;;;10.00;99.90;;;;;;5027863;28;20103;-64
2023/03/19 04:34:43;;;;;;;9.85;7.25;;;9.90;99.90;;;;;;5027626;28;20567;-64
2023/03/19 04:37:09;;;;;;;11.07;7.68;;;9.80;99.90;;;;;;5028596;28;20513;-64
2023/03/19 04:39:36;;;;;;;10.25;7.97;;;9.70;99.90;;;;;;5032923;28;20462;-64
2023/03/19 04:42:03;;;;;;;11.27;7.75;;;9.70;99.90;;;;;;5032382;28;20046;-64
2023/03/19 04:44:29;;;;;;;12.02;8.38;;;9.60;99.90;;;;;;5031720;28;20046;-65
2023/03/19 04:46:56;;;;;;;12.15;8.40;;;9.50;99.90;;;;;;5032395;28;20536;-65
2023/03/19 04:49:23;;;;;;;15.35;9.48;;;9.50;99.90;;;;;;5064663;28;20085;-65
2023/03/19 04:51:49;;;;;;;15.82;10.07;;;9.50;99.90;;;;;;5046937;28;20037;-65
2023/03/19 04:54:15;;;;;;;13.88;9.93;;;9.50;99.90;;;;;;5030999;28;20047;-65
2023/03/19 04:56:41;;;;;;;13.45;9.60;;;9.50;99.90;;;;;;5031033;28;20183;-65
2023/03/19 04:59:07;;;;;;;15.65;11.43;;;9.60;99.90;;;;;;5031696;28;20112;-65
2023/03/19 05:01:33;;;;;;;14.20;9.43;;;9.60;99.90;;;;;;5032213;28;20045;-65
2023/03/19 05:03:59;;;;;;;12.82;9.27;;;9.60;99.90;;;;;;5030629;28;20046;-65
2023/03/19 05:06:26;;;;;;;13.35;8.98;;;9.60;99.90;;;;;;5063820;28;20041;-65
2023/03/19 05:08:52;;;;;;;12.57;8.38;;;9.60;99.90;;;;;;5064010;28;20049;-65
2023/03/19 05:11:18;;;;;;;13.93;9.55;;;9.50;99.90;;;;;;5030775;28;20037;-65
2023/03/19 05:13:44;;;;;;;12.48;9.18;;;9.50;99.90;;;;;;5063301;28;20089;-64
2023/03/19 05:16:12;;;;;;;10.88;8.38;;;9.40;99.90;;;;;;5063813;28;20049;-65
2023/03/19 05:18:37;;;;;;;12.90;8.70;;;9.30;99.90;;;;;;5064091;28;20049;-64
2023/03/19 05:21:03;;;;;;;11.18;7.85;;;9.20;99.90;;;;;;5063448;28;20128;-64
2023/03/19 05:23:29;;;;;;;12.45;8.43;;;9.10;99.90;;;;;;5047025;28;20636;-65
2023/03/19 05:25:58;;;;;;;14.23;8.65;;;9.00;99.90;;;;;;5029651;28;20514;-64
2023/03/19 05:28:24;;;;;;;8.03;6.37;;;9.00;99.90;;;;;;5031868;28;20510;-64
2023/03/19 05:30:50;;;;;;;11.68;8.50;;;8.90;99.90;;;;;;5030242;28;20303;-64
2023/03/19 05:33:16;;;;;;;12.85;8.88;;;8.80;99.90;;;;;;5030960;28;20041;-64
2023/03/19 05:35:41;;;;;;;14.00;9.00;;;8.70;99.90;;;;;;5031458;28;20430;-64
2023/03/19 05:38:08;;;;;;;16.00;10.07;;;8.60;99.90;;;;;;5031324;28;20037;-64
2023/03/19 05:40:34;;;;;;;16.35;10.77;;;8.60;99.90;;;;;;5062843;28;20096;-64
2023/03/19 05:43:00;;;;;;;14.43;9.98;;;8.50;99.90;;;;;;5029892;28;20490;-64
2023/03/19 05:45:26;;;;;;;16.08;10.20;;;8.50;99.90;;;;;;5063277;28;20052;-64
2023/03/19 05:47:52;;;;;;;16.08;10.45;;;8.40;99.90;;;;;;5030222;28;20038;-64
2023/03/19 05:50:18;;;;;;;15.10;10.60;;;8.30;99.90;;;;;;5063054;28;20049;-64
2023/03/19 05:52:44;;;;;;;14.48;9.82;;;8.20;99.90;;;;;;5031078;28;20517;-64
2023/03/19 05:55:10;;;;;;;17.38;11.32;;;8.20;99.90;;;;;;5029305;28;20119;-64
2023/03/19 05:57:36;;;;;;;13.88;9.55;;;8.10;99.90;;;;;;5031376;28;20037;-64
2023/03/19 06:00:05;;;;;;;14.30;10.05;;;8.00;99.90;;;;;;5031106;28;20413;-65
2023/03/19 06:02:31;;;;;;;16.83;10.83;;;8.00;99.90;;;;;;5030288;28;20056;-65
2023/03/19 06:04:57;;;;;;;14.85;10.38;;;8.00;99.90;;;;;;5030909;28;20034;-65
2023/03/19 06:07:23;;;;;;;17.13;11.43;;;8.00;99.90;;;;;;5062902;28;20041;-64
2023/03/19 06:09:48;;;;;;;16.33;11.48;;;8.00;99.90;;;;;;5062332;28;20049;-64
2023/03/19 06:12:15;;;;;;;17.10;12.27;;;8.10;99.90;;;;;;5063046;28;20087;-64
2023/03/19 06:14:41;;;;;;;19.15;12.80;;;8.10;99.90;;;;;;5030901;28;20111;-64
2023/03/19 06:17:08;;;;;;;22.02;13.13;;;8.20;99.90;;;;;;5012709;28;20479;-64
2023/03/19 06:19:34;;;;;;;16.70;11.77;;;8.20;99.90;;;;;;5030625;28;20251;-64
2023/03/19 06:22:00;;;;;;;18.75;12.38;;;8.20;99.90;;;;;;5030269;28;20033;-64
2023/03/19 06:24:25;;;;;;;21.77;13.00;;;8.30;99.90;;;;;;5030741;28;20045;-63
2023/03/19 06:26:51;;;;;;;19.40;11.82;;;8.30;99.90;;;;;;5062526;28;20413;-64
2023/03/19 06:29:17;;;;;;;18.85;11.73;;;8.30;99.90;;;;;;5045666;28;20049;-65
2023/03/19 06:31:43;;;;;;;17.70;11.68;;;8.50;99.90;;;;;;5062750;28;20037;-65
2023/03/19 06:34:09;;;;;;;17.48;11.38;;;8.60;99.90;;;;;;5062250;28;20409;-65
2023/03/19 06:36:35;;;;;;;14.40;11.02;;;8.70;99.90;;;;;;5061661;28;20049;-65
2023/03/19 06:39:01;;;;;;;14.68;10.77;;;8.80;99.90;;;;;;5028975;28;20045;-65
2023/03/19 06:41:27;;;;;;;16.00;11.10;;;8.90;99.90;;;;;;5029079;28;20084;-65
2023/03/19 06:43:53;;;;;;;15.32;10.52;;;8.90;99.90;;;;;;5061472;28;20080;-65
2023/03/19 06:46:19;;;;;;;14.35;10.50;;;9.00;99.90;;;;;;5045391;28;20038;-65
2023/03/19 06:48:45;;;;;;;15.07;11.63;;;9.10;99.90;;;;;;5029015;28;20331;-65
2023/03/19 06:51:11;;;;;;;16.60;11.20;;;9.20;99.90;;;;;;5061821;28;20483;-65
2023/03/19 06:53:36;;;;;;;16.98;10.90;;;9.30;99.90;;;;;;5045456;28;20467;-65
2023/03/19 06:56:03;;;;;;;16.27;9.70;;;9.50;99.90;;;;;;5046572;28;20037;-65
2023/03/19 06:58:28;;;;;;;13.95;10.00;;;9.60;99.90;;;;;;5048737;28;20036;-65
2023/03/19 07:00:55;;;;;;;15.13;10.15;;;9.60;99.90;;;;;;5048331;28;20489;-65
2023/03/19 07:03:21;;;;;;;13.95;10.25;;;9.70;99.90;;;;;;5047966;28;20536;-65
2023/03/19 07:05:50;;;;;;;13.45;9.10;;;9.70;99.90;;;;;;5048967;28;20045;-65
2023/03/19 07:08:16;;;;;;;13.52;10.35;;;9.80;99.90;;;;;;5048488;28;20086;-65
2023/03/19 07:10:42;;;;;;;15.13;10.60;;;9.90;99.90;;;;;;5048342;28;20043;-65
2023/03/19 07:13:08;;;;;;;16.98;10.88;;;9.90;99.90;;;;;;5048726;28;20037;-65
2023/03/19 07:15:35;;;;;;;17.50;11.88;;;10.00;99.90;;;;;;5029167;28;20517;-65
2023/03/19 07:18:01;;;;;;;17.98;12.00;;;10.10;99.90;;;;;;5028087;28;20051;-65
2023/03/19 07:20:27;;;;;;;15.15;10.45;;;10.10;99.90;;;;;;5061388;28;20049;-65
2023/03/19 07:22:53;;;;;;;16.92;11.18;;;10.30;99.90;;;;;;5028054;28;20485;-65
2023/03/19 07:25:19;;;;;;;17.02;11.73;;;10.40;99.90;;;;;;5028672;28;20048;-65
2023/03/19 07:27:45;;;;;;;16.48;11.73;;;10.40;99.90;;;;;;5028247;28;20034;-65
2023/03/19 07:30:12;;;;;;;15.50;11.75;;;10.50;99.90;;;;;;5036665;28;20040;-65
2023/03/19 07:32:38;;;;;;;16.05;11.75;;;10.50;99.90;;;;;;5045860;28;20060;-65
2023/03/19 07:35:06;;;;;;;15.15;11.75;;;10.60;99.90;;;;;;5030556;28;20033;-65
2023/03/19 07:37:32;;;;;;;16.52;11.75;;;10.70;99.90;;;;;;5032970;28;20088;-65
2023/03/19 07:39:57;;;;;;;15.63;11.38;;;10.80;99.90;;;;;;5028815;28;20061;-65
2023/03/19 07:42:23;;;;;;;18.60;12.50;;;11.00;99.90;;;;;;5062669;28;20905;-65
2023/03/19 07:44:49;;;;;;;15.07;11.43;;;11.20;99.90;;;;;;5062263;28;20498;-66
2023/03/19 07:47:15;;;;;;;16.92;12.60;;;11.20;99.90;;;;;;5029609;28;20116;-66
2023/03/19 07:49:40;;;;;;;17.02;11.38;;;11.20;99.90;;;;;;5072075;28;20044;-66
2023/03/19 07:52:06;;;;;;;15.88;12.35;;;11.20;99.90;;;;;;5048773;28;20052;-66
2023/03/19 07:54:32;;;;;;;19.58;13.55;;;11.10;99.90;;;;;;5049659;28;20177;-66
2023/03/19 07:56:58;;;;;;;18.35;12.88;;;11.10;99.90;;;;;;5050132;28;20037;-66
2023/03/19 07:59:24;;;;;;;17.33;12.40;;;10.90;99.90;;;;;;5049044;28;20401;-66
2023/03/19 08:01:50;;;;;;;15.85;12.23;;;10.80;99.90;;;;;;5049345;28;20471;-66
2023/03/19 08:04:16;;;;;;;19.30;13.27;;;10.80;99.90;;;;;;5049615;28;20524;-65
2023/03/19 08:06:42;;;;;;;15.13;11.65;;;10.70;99.90;;;;;;5048667;28;20513;-66
2023/03/19 08:09:08;;;;;;;17.85;13.05;;;10.70;99.90;;;;;;5048818;28;20048;-64
2023/03/19 08:11:34;;;;;;;16.52;12.98;;;10.70;99.90;;;;;;5049333;28;20064;-65
2023/03/19 08:14:00;;;;;;;19.50;12.38;;;10.70;99.90;;;;;;5035531;28;20073;-64
2023/03/19 08:16:26;;;;;;;16.85;12.30;;;10.70;99.90;;;;;;5036222;28;20079;-66
2023/03/19 08:18:52;;;;;;;19.17;11.93;;;10.70;99.90;;;;;;5036178;28;20072;-63
2023/03/19 08:21:18;;;;;;;16.15;11.60;;;10.70;99.90;;;;;;5052133;28;20445;-64
2023/03/19 08:23:44;;;;;;;19.58;13.07;;;10.70;99.90;;;;;;5053837;28;20538;-65
2023/03/19 08:26:10;;;;;;;18.77;12.32;;;10.70;99.90;;;;;;5035670;28;20049;-66
2023/03/19 08:28:36;;;;;;;17.30;12.52;;;10.70;99.90;;;;;;5051836;28;20079;-66
2023/03/19 08:31:10;;;;;;;15.80;11.73;;;10.70;99.90;;;;;;5051950;28;20120;-65
2023/03/19 08:33:36;;;;;;;17.70;12.82;;;10.70;99.90;;;;;;5052528;28;20044;-65
2023/03/19 08:36:08;;;;;;;16.80;12.57;;;10.70;99.90;;;;;;5050700;28;20059;-65
2023/03/19 08:38:34;;;;;;;20.27;13.38;;;10.80;99.90;;;;;;5052218;28;20037;-65
2023/03/19 08:41:01;;;;;;;18.05;12.35;;;10.70;99.90;;;;;;5052453;28;20497;-65
2023/03/19 08:43:28;;;;;;;16.10;12.43;;;10.60;99.90;;;;;;5050257;28;20080;-65
2023/03/19 08:45:54;;;;;;;18.42;12.38;;;10.70;99.90;;;;;;5050659;28;20489;-65
2023/03/19 08:48:19;;;;;;;16.15;12.95;;;10.70;99.90;;;;;;5051094;28;20041;-65
2023/03/19 08:50:50;;;;;;;17.48;13.07;;;10.70;99.90;;;;;;5050011;28;20183;-65
2023/03/19 08:53:17;;;;;;;17.88;12.45;;;10.80;99.90;;;;;;5050575;28;20060;-65
2023/03/19 08:55:49;;;;;;;17.98;12.95;;;10.80;99.90;;;;;;5050309;28;20045;-65
2023/03/19 08:58:15;;;;;;;21.48;16.38;;;10.90;99.90;;;;;;5050734;28;20048;-65
2023/03/19 09:00:42;;;;;;;20.02;15.52;;;10.80;99.90;;;;;;5051911;28;20051;-65
2023/03/19 09:03:08;;;;;;;21.70;15.02;;;10.80;99.90;;;;;;5051174;28;20040;-65
2023/03/19 09:05:35;;;;;;;21.10;14.63;;;10.60;99.90;;;;;;5050730;28;20505;-65
2023/03/19 09:08:03;;;;;;;19.60;14.93;;;10.50;99.90;;;;;;5051896;28;20494;-65
2023/03/19 09:10:29;;;;;;;21.30;15.18;;;10.40;99.90;;;;;;5049838;28;20510;-65
2023/03/19 09:12:55;;;;;;;23.55;15.57;;;10.30;99.90;;;;;;5051743;28;20592;-65
2023/03/19 09:15:21;;;;;;;22.05;15.20;;;10.30;99.90;;;;;;5050798;28;20056;-65
2023/03/19 09:17:48;;;;;;;23.08;16.73;;;10.20;99.90;;;;;;5050141;28;20053;-65
2023/03/19 09:20:14;;;;;;;23.08;16.02;;;10.10;99.90;;;;;;5050599;28;20052;-65
2023/03/19 09:22:40;;;;;;;22.58;15.13;;;10.10;99.90;;;;;;5049518;28;20555;-66
2023/03/19 09:25:07;;;;;;;21.70;14.10;;;10.10;99.90;;;;;;5048807;28;20041;-65
2023/03/19 09:27:33;;;;;;;23.95;16.48;;;10.00;99.90;;;;;;5051442;28;20475;-65
2023/03/19 09:29:59;;;;;;;25.60;16.80;;;10.10;99.90;;;;;;5051443;28;20478;-65
2023/03/19 09:32:24;;;;;;;23.17;17.10;;;10.10;99.90;;;;;;5049684;28;20044;-65
2023/03/19 09:34:50;;;;;;;22.55;16.70;;;10.20;99.90;;;;;;5050137;28;20029;-65
2023/03/19 09:37:16;;;;;;;25.20;16.65;;;10.20;99.90;;;;;;5050075;28;20585;-65
2023/03/19 09:39:42;;;;;;;25.05;16.05;;;10.20;99.90;;;;;;5048331;28;20036;-65
2023/03/19 09:42:26;;;;;;;23.95;16.50;;;10.20;99.90;;;;;;5050750;28;20040;-65
2023/03/19 09:44:52;;;;;;;25.15;16.50;;;10.20;99.90;;;;;;5050154;28;20090;-65
2023/03/19 09:47:26;;;;;;;24.85;17.35;;;10.20;99.90;;;;;;5050689;28;20041;-66
2023/03/19 09:49:58;;;;;;;29.25;18.63;;;10.10;99.90;;;;;;5051407;28;20041;-66
2023/03/19 09:52:44;;;;;;;32.70;19.65;;;10.20;99.90;;;;;;5050098;28;20041;-66
2023/03/19 09:55:18;;;;;;;28.63;19.17;;;10.10;99.90;;;;;;5050577;28;20052;-64
2023/03/19 09:57:45;;;;;;;30.33;19.73;;;10.10;99.90;;;;;;5051043;28;20666;-65
2023/03/19 10:00:14;;;;;;;30.55;20.45;;;10.10;99.90;;;;;;5048559;28;20275;-66
2023/03/19 10:02:42;;;;;;;35.37;21.00;;;10.00;99.90;;;;;;5049054;28;20048;-66
2023/03/19 10:05:18;;;;;;;33.97;21.02;;;10.00;99.90;;;;;;5032049;28;20033;-65
2023/03/19 10:07:56;;;;;;;33.97;21.08;;;10.10;99.90;;;;;;5048128;28;20053;-65
2023/03/19 10:10:37;;;;;;;34.45;20.00;;;10.10;99.90;;;;;;5049409;28;20029;-66
2023/03/19 10:13:17;;;;;;;32.10;20.27;;;10.10;99.90;;;;;;5050150;28;20053;-66
2023/03/19 10:15:44;;;;;;;38.05;21.85;;;10.10;99.90;;;;;;5049359;28;20141;-66
2023/03/19 10:18:25;;;;;;;43.13;25.35;;;10.20;99.90;;;;;;5049577;28;20386;-66
2023/03/19 10:20:56;;;;;;;46.53;25.83;;;10.20;99.90;;;;;;5047945;28;20072;-66
2023/03/19 10:23:47;;;;;;;35.97;21.38;;;10.30;99.90;;;;;;5050344;28;20033;-66
2023/03/19 10:26:19;;;;;;;42.83;25.30;;;10.30;99.90;;;;;;5050136;28;20123;-66
2023/03/19 10:29:15;;;;;;;33.80;20.48;;;10.30;99.90;;;;;;5048645;28;20396;-66
2023/03/19 10:31:59;;;;;;;34.75;19.52;;;10.30;99.90;;;;;;5047945;28;20041;-65
2023/03/19 10:34:33;;;;;;;34.20;18.25;;;10.40;99.90;;;;;;5048256;28;20037;-65
2023/03/19 10:37:19;;;;;;;33.72;21.25;;;10.40;99.90;;;;;;5050268;28;20052;-66
2023/03/19 10:39:47;;;;;;;38.33;23.23;;;10.50;99.90;;;;;;5049045;28;20048;-66
2023/03/19 10:42:42;;;;;;;37.00;21.73;;;10.50;99.90;;;;;;5048120;28;20049;-65
2023/03/19 10:45:27;;;;;;;43.10;24.10;;;10.50;99.90;;;;;;5048700;28;20053;-65
2023/03/19 10:47:55;;;;;;;41.17;24.83;;;10.50;99.90;;;;;;5048266;28;20509;-66
2023/03/19 10:50:35;;;;;;;40.33;23.17;;;10.40;99.90;;;;;;5049982;28;20405;-66
2023/03/19 10:53:04;;;;;;;35.38;21.55;;;10.40;99.90;;;;;;5048543;28;20039;-66
2023/03/19 10:55:30;;;;;;;37.67;21.85;;;10.40;99.90;;;;;;5049224;28;20098;-65
2023/03/19 10:58:05;;;;;;;37.05;21.42;;;10.40;99.90;;;;;;5048756;28;20040;-65
2023/03/19 11:00:34;;;;;;;38.53;23.45;;;10.40;99.90;;;;;;5048780;28;20053;-65
2023/03/19 11:03:03;;;;;;;36.42;21.38;;;10.40;99.90;;;;;;5034862;28;20095;-65
2023/03/19 11:05:32;;;;;;;36.15;22.63;;;10.40;99.90;;;;;;5061962;28;20049;-65
2023/03/19 11:08:15;;;;;;;36.95;21.73;;;10.30;99.90;;;;;;5039326;28;20094;-65
2023/03/19 11:10:47;;;;;;;36.28;20.52;;;10.30;99.90;;;;;;5047758;28;20041;-65
2023/03/19 11:13:25;;;;;;;50.13;30.83;;;10.20;99.90;;;;;;5049463;28;20083;-65
2023/03/19 11:15:53;;;;;;;43.67;23.35;;;10.20;99.90;;;;;;5048876;28;20409;-65
2023/03/19 11:18:27;;;;;;;44.63;25.33;;;10.30;99.90;;;;;;5039621;28;20044;-65
2023/03/19 11:21:08;;;;;;;46.88;25.38;;;10.30;99.90;;;;;;5029784;28;20120;-65
2023/03/19 11:23:41;;;;;;;47.50;24.77;;;10.30;99.90;;;;;;5060880;28;20041;-65
2023/03/19 11:26:08;;;;;;;45.40;24.23;;;10.20;99.90;;;;;;5071743;28;20049;-65
2023/03/19 11:28:36;;;;;;;48.17;26.35;;;10.20;99.90;;;;;;5033093;28;20041;-65
2023/03/19 11:31:19;;;;;;;47.65;25.75;;;10.20;99.90;;;;;;5027999;28;20033;-65
2023/03/19 11:34:25;;;;;;;47.20;26.02;;;10.20;99.90;;;;;;5061336;28;20059;-64
2023/03/19 11:37:15;;;;;;;45.75;25.25;;;10.20;99.90;;;;;;5024127;28;20058;-65
2023/03/19 11:40:33;;;;;;;46.72;24.00;;;10.10;99.90;;;;;;5028922;28;20379;-65
2023/03/19 11:43:23;;;;;;;45.03;23.67;;;10.00;99.90;;;;;;5006297;28;20046;-65
2023/03/19 11:45:58;;;;;;;44.45;22.75;;;10.00;99.90;;;;;;5043809;28;20049;-65
2023/03/19 11:49:07;;;;;;;47.03;24.08;;;10.00;99.90;;;;;;5029122;28;20398;-65
2023/03/19 11:51:59;;;;;;;40.60;21.13;;;10.00;99.90;;;;;;5064348;28;20461;-65
2023/03/19 11:54:43;;;;;;;38.60;19.48;;;10.10;99.90;;;;;;5049244;28;20043;-65
2023/03/19 11:57:39;;;;;;;32.78;18.00;;;10.30;99.90;;;;;;5047692;28;20170;-64
2023/03/19 12:00:24;;;;;;;34.10;19.27;;;10.30;99.90;;;;;;5048420;28;20497;-64
2023/03/19 12:03:05;;;;;;;37.92;18.90;;;10.40;99.90;;;;;;5047832;28;20045;-65
2023/03/19 12:05:38;;;;;;;34.83;19.65;;;10.40;99.90;;;;;;5047034;28;20041;-65
2023/03/19 12:08:26;;;;;;;37.13;20.48;;;10.50;99.90;;;;;;5047878;28;20037;-65
2023/03/19 12:11:01;;;;;;;34.30;19.67;;;10.60;99.90;;;;;;5048832;28;20486;-65
2023/03/19 12:13:51;;;;;;;34.45;18.77;;;10.60;99.90;;;;;;5048405;28;20049;-65
2023/03/19 12:16:16;;;;;;;;;;;10.70;99.90;;;;;;5047730;28;20053;-65
2023/03/19 12:19:10;;;;;;;35.75;18.40;;;10.70;99.90;;;;;;5047568;28;19924;-65
2023/03/19 12:22:06;;;;;;;34.67;18.35;;;10.70;99.90;;;;;;5066320;28;20056;-64
2023/03/19 12:24:44;;;;;;;31.83;18.38;;;10.90;99.90;;;;;;5029361;28;20405;-65
2023/03/19 12:27:29;;;;;;;33.72;18.77;;;11.00;99.90;;;;;;5029193;28;20085;-64
2023/03/19 12:30:10;;;;;;;31.85;18.45;;;11.00;99.90;;;;;;5032549;28;20046;-64
2023/03/19 12:33:02;;;;;;;34.88;19.83;;;11.10;99.90;;;;;;5029040;28;20040;-64
2023/03/19 12:35:34;;;;;;;35.25;19.23;;;11.10;99.90;;;;;;5044994;28;20037;-64
2023/03/19 12:38:04;;;;;;;30.98;18.13;;;11.20;99.90;;;;;;5059909;28;20045;-64
2023/03/19 12:40:36;;;;;;;30.63;16.65;;;11.20;99.90;;;;;;5024057;28;20052;-64
2023/03/19 12:43:13;;;;;;;37.05;19.35;;;11.30;99.90;;;;;;5023597;28;20095;-64
2023/03/19 12:45:45;;;;;;;35.72;18.50;;;11.30;99.90;;;;;;5025912;28;20431;-64
2023/03/19 12:48:23;;;;;;;35.28;19.63;;;11.40;99.90;;;;;;5023199;28;20029;-64
2023/03/19 12:50:53;;;;;;;32.90;19.15;;;11.30;99.90;;;;;;5057222;28;20495;-64